Time,TemperatureF,DewpointF,PressureIn,WindDirection,WindDirectionDegrees,WindSpeedMPH,WindSpeedGustMPH,Humidity,HourlyPrecipIn,Conditions,Clouds,dailyrainin,SoftwareType,DateUTC
2013-04-03 00:01:00,27.0,19.5,30.05,West,270,2.7,-999.0,73,-99.99,,,0.00,Acu-Link.com,2013-04-03 04:01:00,
2013-04-03 00:31:00,26.6,19.5,30.06,WNW,292,0.0,-999.0,74,-99.99,,,0.00,Acu-Link.com,2013-04-03 04:31:00,
2013-04-03 00:46:00,26.4,19.6,30.06,West,270,0.0,-999.0,75,-99.99,,,0.00,Acu-Link.com,2013-04-03 04:46:00,
2013-04-03 01:17:00,27.3,20.4,30.06,WNW,292,0.0,-999.0,75,-99.99,,,0.00,Acu-Link.com,2013-04-03 05:17:00,
2013-04-03 01:32:00,27.3,20.4,30.06,West,270,0.0,-999.0,75,-99.99,,,0.00,Acu-Link.com,2013-04-03 05:32:00,
2013-04-03 01:47:00,27.5,20.6,30.06,West,270,0.0,-999.0,75,-99.99,,,0.00,Acu-Link.com,2013-04-03 05:47:00,
2013-04-03 02:03:00,27.3,20.4,30.06,West,270,0.0,-999.0,75,-99.99,,,0.00,Acu-Link.com,2013-04-03 06:03:00,
2013-04-03 02:18:00,27.5,20.0,30.05,NNW,337,3.2,-999.0,73,-99.99,,,0.00,Acu-Link.com,2013-04-03 06:18:00,
2013-04-03 02:33:00,27.0,19.5,30.06,WNW,292,0.0,-999.0,73,-99.99,,,0.00,Acu-Link.com,2013-04-03 06:33:00,
2013-04-03 02:48:00,27.0,19.2,30.05,West,270,0.0,-999.0,72,-99.99,,,0.00,Acu-Link.com,2013-04-03 06:48:00,
2013-04-03 03:03:00,26.2,19.1,30.06,SW,225,0.0,-999.0,74,-99.99,,,0.00,Acu-Link.com,2013-04-03 07:03:00,
2013-04-03 03:19:00,25.5,19.0,30.05,West,270,0.0,-999.0,76,-99.99,,,0.00,Acu-Link.com,2013-04-03 07:19:00,
2013-04-03 03:34:00,25.2,19.3,30.05,SW,225,1.7,-999.0,78,-99.99,,,0.00,Acu-Link.com,2013-04-03 07:34:00,
2013-04-03 03:49:00,25.3,19.4,30.06,WSW,247,0.0,-999.0,78,-99.99,,,0.00,Acu-Link.com,2013-04-03 07:49:00,
2013-04-03 04:05:00,25.9,20.0,30.05,WNW,292,3.7,-999.0,78,-99.99,,,0.00,Acu-Link.com,2013-04-03 08:05:00,
2013-04-03 04:20:00,26.1,20.2,30.06,WNW,292,4.2,-999.0,78,-99.99,,,0.00,Acu-Link.com,2013-04-03 08:20:00,
2013-04-03 04:35:00,26.4,20.5,30.07,West,270,0.0,-999.0,78,-99.99,,,0.00,Acu-Link.com,2013-04-03 08:35:00,
2013-04-03 04:50:00,26.6,20.4,30.07,SW,225,0.0,-999.0,77,-99.99,,,0.00,Acu-Link.com,2013-04-03 08:50:00,
2013-04-03 05:05:00,26.6,19.8,30.08,West,270,2.7,-999.0,75,-99.99,,,0.00,Acu-Link.com,2013-04-03 09:05:00,
2013-04-03 05:20:00,26.4,18.0,30.08,WNW,292,3.2,-999.0,70,-99.99,,,0.00,Acu-Link.com,2013-04-03 09:20:00,
2013-04-03 05:36:00,27.0,18.2,30.08,WNW,292,3.2,-999.0,69,-99.99,,,0.00,Acu-Link.com,2013-04-03 09:36:00,
2013-04-03 05:51:00,27.1,18.3,30.08,West,270,2.7,-999.0,69,-99.99,,,0.00,Acu-Link.com,2013-04-03 09:51:00,
2013-04-03 06:37:00,26.8,18.3,30.10,West,270,2.7,-999.0,70,-99.99,,,0.00,Acu-Link.com,2013-04-03 10:37:00,
2013-04-03 06:52:00,26.8,18.3,30.11,WNW,292,2.7,-999.0,70,-99.99,,,0.00,Acu-Link.com,2013-04-03 10:52:00,
2013-04-03 07:07:00,26.4,17.6,30.12,West,270,3.7,-999.0,69,-99.99,,,0.00,Acu-Link.com,2013-04-03 11:07:00,
2013-04-03 07:23:00,26.2,17.8,30.12,South,180,2.7,-999.0,70,-99.99,,,0.00,Acu-Link.com,2013-04-03 11:23:00,
2013-04-03 07:38:00,26.8,18.3,30.13,WSW,247,2.2,-999.0,70,-99.99,,,0.00,Acu-Link.com,2013-04-03 11:38:00,
2013-04-03 07:53:00,27.3,18.8,30.13,West,270,2.2,-999.0,70,-99.99,,,0.00,Acu-Link.com,2013-04-03 11:53:00,
2013-04-03 08:08:00,27.3,18.2,30.14,WNW,292,4.7,-999.0,68,-99.99,,,0.00,Acu-Link.com,2013-04-03 12:08:00,
2013-04-03 08:24:00,29.5,19.2,30.14,WSW,247,3.7,-999.0,65,-99.99,,,0.00,Acu-Link.com,2013-04-03 12:24:00,
2013-04-03 08:39:00,28.4,20.2,30.13,SW,225,1.1,-999.0,71,-99.99,,,0.00,Acu-Link.com,2013-04-03 12:39:00,
2013-04-03 08:54:00,28.4,20.2,30.13,West,270,2.7,-999.0,71,-99.99,,,0.00,Acu-Link.com,2013-04-03 12:54:00,
2013-04-03 09:09:00,30.7,21.1,30.13,West,270,5.3,-999.0,67,-99.99,,,0.00,Acu-Link.com,2013-04-03 13:09:00,
2013-04-03 09:24:00,30.2,20.2,30.14,SW,225,3.7,-999.0,66,-99.99,,,0.00,Acu-Link.com,2013-04-03 13:24:00,
2013-04-03 09:39:00,29.7,20.1,30.14,WNW,292,2.2,-999.0,67,-99.99,,,0.00,Acu-Link.com,2013-04-03 13:39:00,
2013-04-03 09:54:00,32.0,21.2,30.14,SW,225,3.7,-999.0,64,-99.99,,,0.00,Acu-Link.com,2013-04-03 13:54:00,
2013-04-03 10:09:00,31.6,19.7,30.14,WNW,292,5.8,-999.0,61,-99.99,,,0.00,Acu-Link.com,2013-04-03 14:09:00,
2013-04-03 10:24:00,32.2,19.9,30.14,WSW,247,4.7,-999.0,60,-99.99,,,0.00,Acu-Link.com,2013-04-03 14:24:00,
2013-04-03 10:40:00,32.0,20.5,30.14,WNW,292,2.2,-999.0,62,-99.99,,,0.00,Acu-Link.com,2013-04-03 14:40:00,
2013-04-03 10:55:00,32.9,19.4,30.14,West,270,5.8,-999.0,57,-99.99,,,0.00,Acu-Link.com,2013-04-03 14:55:00,
2013-04-03 11:10:00,31.5,18.8,30.16,West,270,1.7,-999.0,59,-99.99,,,0.00,Acu-Link.com,2013-04-03 15:10:00,
2013-04-03 11:25:00,31.1,19.6,30.16,SW,225,2.7,-999.0,62,-99.99,,,0.00,Acu-Link.com,2013-04-03 15:25:00,
2013-04-03 11:56:00,32.7,20.4,30.17,West,270,4.7,-999.0,60,-99.99,,,0.00,Acu-Link.com,2013-04-03 15:56:00,
2013-04-03 12:11:00,33.6,21.6,30.17,SSW,202,1.7,-999.0,61,-99.99,,,0.00,Acu-Link.com,2013-04-03 16:11:00,
2013-04-03 12:27:00,35.6,22.7,30.17,WSW,247,4.2,-999.0,59,-99.99,,,0.00,Acu-Link.com,2013-04-03 16:27:00,
2013-04-03 12:42:00,36.1,23.6,30.17,WSW,247,3.2,-999.0,60,-99.99,,,0.00,Acu-Link.com,2013-04-03 16:42:00,
2013-04-03 12:57:00,35.6,21.0,30.18,NW,315,6.8,-999.0,55,-99.99,,,0.00,Acu-Link.com,2013-04-03 16:57:00,
2013-04-03 13:12:00,36.3,20.4,30.19,West,270,4.2,-999.0,52,-99.99,,,0.00,Acu-Link.com,2013-04-03 17:12:00,
2013-04-03 13:28:00,36.0,20.5,30.19,West,270,3.7,-999.0,53,-99.99,,,0.00,Acu-Link.com,2013-04-03 17:28:00,
2013-04-03 13:43:00,35.6,20.6,30.19,SW,225,3.7,-999.0,54,-99.99,,,0.00,Acu-Link.com,2013-04-03 17:43:00,
2013-04-03 13:58:00,36.3,20.4,30.18,SE,135,5.8,-999.0,52,-99.99,,,0.00,Acu-Link.com,2013-04-03 17:58:00,
2013-04-03 14:13:00,37.2,20.3,30.19,West,270,5.8,-999.0,50,-99.99,,,0.00,Acu-Link.com,2013-04-03 18:13:00,
2013-04-03 14:28:00,35.6,18.8,30.19,West,270,2.7,-999.0,50,-99.99,,,0.00,Acu-Link.com,2013-04-03 18:28:00,
2013-04-03 14:43:00,37.0,18.7,30.19,WNW,292,4.2,-999.0,47,-99.99,,,0.00,Acu-Link.com,2013-04-03 18:43:00,
2013-04-03 14:59:00,39.2,18.1,30.20,SE,135,4.2,-999.0,42,-99.99,,,0.00,Acu-Link.com,2013-04-03 18:59:00,
2013-04-03 15:14:00,39.7,19.1,30.19,South,180,3.7,-999.0,43,-99.99,,,0.00,Acu-Link.com,2013-04-03 19:14:00,
2013-04-03 15:29:00,39.4,18.8,30.19,West,270,4.2,-999.0,43,-99.99,,,0.00,Acu-Link.com,2013-04-03 19:29:00,
2013-04-03 15:44:00,39.9,19.2,30.20,WNW,292,6.3,-999.0,43,-99.99,,,0.00,Acu-Link.com,2013-04-03 19:44:00,
2013-04-03 16:00:00,39.4,18.2,30.20,West,270,4.7,-999.0,42,-99.99,,,0.00,Acu-Link.com,2013-04-03 20:00:00,
2013-04-03 16:15:00,38.7,17.6,30.20,West,270,4.2,-999.0,42,-99.99,,,0.00,Acu-Link.com,2013-04-03 20:15:00,
2013-04-03 16:30:00,38.1,17.6,30.21,WSW,247,3.7,-999.0,43,-99.99,,,0.00,Acu-Link.com,2013-04-03 20:30:00,
2013-04-03 16:45:00,38.5,19.0,30.20,West,270,4.7,-999.0,45,-99.99,,,0.00,Acu-Link.com,2013-04-03 20:45:00,
2013-04-03 17:00:00,37.9,18.5,30.20,West,270,4.2,-999.0,45,-99.99,,,0.00,Acu-Link.com,2013-04-03 21:00:00,
2013-04-03 17:15:00,38.3,17.8,30.20,West,270,4.7,-999.0,43,-99.99,,,0.00,Acu-Link.com,2013-04-03 21:15:00,
2013-04-03 17:30:00,37.4,18.0,30.21,WNW,292,7.8,-999.0,45,-99.99,,,0.00,Acu-Link.com,2013-04-03 21:30:00,
2013-04-03 17:45:00,36.5,17.2,30.21,WNW,292,5.3,-999.0,45,-99.99,,,0.00,Acu-Link.com,2013-04-03 21:45:00,
2013-04-03 18:00:00,37.4,18.0,30.22,West,270,3.2,-999.0,45,-99.99,,,0.00,Acu-Link.com,2013-04-03 22:00:00,
2013-04-03 18:31:00,36.0,18.2,30.24,West,270,1.7,-999.0,48,-99.99,,,0.00,Acu-Link.com,2013-04-03 22:31:00,
2013-04-03 18:46:00,35.2,18.4,30.24,SW,225,3.7,-999.0,50,-99.99,,,0.00,Acu-Link.com,2013-04-03 22:46:00,
2013-04-03 19:01:00,34.3,18.5,30.25,West,270,2.7,-999.0,52,-99.99,,,0.00,Acu-Link.com,2013-04-03 23:01:00,
2013-04-03 19:17:00,33.6,19.2,30.26,West,270,1.7,-999.0,55,-99.99,,,0.00,Acu-Link.com,2013-04-03 23:17:00,
2013-04-03 19:32:00,32.9,18.1,30.27,WNW,292,4.2,-999.0,54,-99.99,,,0.00,Acu-Link.com,2013-04-03 23:32:00,
2013-04-03 19:47:00,32.2,17.9,30.27,West,270,1.7,-999.0,55,-99.99,,,0.00,Acu-Link.com,2013-04-03 23:47:00,
2013-04-03 20:02:00,31.5,17.6,30.28,West,270,2.2,-999.0,56,-99.99,,,0.00,Acu-Link.com,2013-04-04 00:02:00,
2013-04-03 20:18:00,31.3,17.9,30.29,WNW,292,2.7,-999.0,57,-99.99,,,0.00,Acu-Link.com,2013-04-04 00:18:00,
2013-04-03 20:33:00,30.9,18.3,30.30,WSW,247,0.0,-999.0,59,-99.99,,,0.00,Acu-Link.com,2013-04-04 00:33:00,
2013-04-03 20:48:00,30.6,18.0,30.31,SSW,202,1.7,-999.0,59,-99.99,,,0.00,Acu-Link.com,2013-04-04 00:48:00,
2013-04-03 21:34:00,29.8,17.6,30.32,West,270,2.7,-999.0,60,-99.99,,,0.00,Acu-Link.com,2013-04-04 01:34:00,
2013-04-03 21:49:00,29.5,18.1,30.31,SW,225,3.2,-999.0,62,-99.99,,,0.00,Acu-Link.com,2013-04-04 01:49:00,
2013-04-03 22:04:00,28.9,17.9,30.32,West,270,2.2,-999.0,63,-99.99,,,0.00,Acu-Link.com,2013-04-04 02:04:00,
2013-04-03 22:19:00,28.8,18.2,30.32,West,270,1.1,-999.0,64,-99.99,,,0.00,Acu-Link.com,2013-04-04 02:19:00,
2013-04-03 22:35:00,28.4,18.2,30.32,West,270,3.2,-999.0,65,-99.99,,,0.00,Acu-Link.com,2013-04-04 02:35:00,
2013-04-03 22:50:00,28.0,17.8,30.30,SW,225,0.0,-999.0,65,-99.99,,,0.00,Acu-Link.com,2013-04-04 02:50:00,
2013-04-03 23:05:00,27.5,18.0,30.31,SSW,202,0.0,-999.0,67,-99.99,,,0.00,Acu-Link.com,2013-04-04 03:05:00,
2013-04-03 23:20:00,27.1,18.0,30.30,SW,225,0.0,-999.0,68,-99.99,,,0.00,Acu-Link.com,2013-04-04 03:20:00,
2013-04-03 23:36:00,26.6,17.8,30.29,WSW,247,0.0,-999.0,69,-99.99,,,0.00,Acu-Link.com,2013-04-04 03:36:00,